CDT,Max TemperatureF,Mean TemperatureF,Min TemperatureF,Max Dew PointF,MeanDew PointF,Min DewpointF,Max Humidity, Mean Humidity, Min Humidity, Max Sea Level PressureIn, Mean Sea Level PressureIn, Min Sea Level PressureIn, Max VisibilityMiles, Mean VisibilityMiles, Min VisibilityMiles, Max Wind SpeedMPH, Mean Wind SpeedMPH, Max Gust SpeedMPH,PrecipitationIn, CloudCover, Events, WindDirDegrees
2013-9-1,73,62,51,58,55,50,96,75,53,30.07,29.98,29.86,10,10,10,21,9,25,0.00,3,,341
2013-9-2,77,60,43,54,48,43,100,68,36,30.14,30.09,30.03,10,5,0,10,3,15,0.00,3,Fog,2
2013-9-3,83,68,52,65,57,49,89,70,51,30.05,30.01,29.96,10,10,10,16,7,20,0.00,0,,153
2013-9-4,89,74,59,68,63,57,100,72,43,30.12,30.07,30.01,10,7,1,15,6,20,0.00,0,,91
2013-9-5,86,75,64,66,64,60,93,68,42,30.13,30.08,30.02,10,10,10,23,11,29,0.00,0,,144
2013-9-6,88,77,65,69,65,62,93,70,46,30.01,29.92,29.84,10,10,10,14,7,21,0.00,1,,176
2013-9-7,91,77,63,69,66,63,93,69,44,29.99,29.94,29.88,10,10,6,20,8,25,0.00,0,,36
2013-9-8,80,74,67,68,66,64,97,82,67,30.02,29.91,29.81,10,9,5,13,7,20,T,3,,99
2013-9-9,86,77,67,70,67,64,97,74,51,29.82,29.72,29.65,10,7,3,21,10,25,0.04,2,Thunderstorm,210
2013-9-10,80,72,63,65,59,54,93,68,43,30.02,29.93,29.83,10,10,10,16,8,22,0.01,2,Rain,266
2013-9-11,85,69,52,59,53,45,93,61,29,30.18,30.09,30.01,10,10,10,18,7,25,0.00,1,,301
2013-9-12,76,60,44,48,45,42,92,62,31,30.29,30.24,30.19,10,10,10,18,5,22,0.00,0,,14
2013-9-13,75,60,44,50,47,43,93,63,33,30.26,30.16,30.01,10,10,10,15,7,21,0.00,0,,168
2013-9-14,71,62,52,58,54,48,93,75,57,30.01,29.88,29.77,10,9,2,22,12,30,0.38,6,Rain,153
2013-9-15,66,57,47,56,53,46,100,80,60,30.33,30.12,29.86,10,10,3,22,11,28,0.00,7,Rain,26
2013-9-16,68,56,44,50,47,43,100,73,45,30.36,30.28,30.14,10,10,10,17,9,23,0.00,0,,156
2013-9-17,66,59,51,61,55,48,100,87,73,30.13,29.95,29.81,10,8,1,21,14,29,0.00,7,,161
2013-9-18,90,76,61,68,65,59,100,75,50,29.81,29.68,29.55,10,6,0,29,12,43,0.39,5,Fog-Rain-Thunderstorm,169
2013-9-19,73,64,54,63,56,45,93,66,38,29.94,29.76,29.61,10,9,3,24,14,30,0.43,4,Rain-Thunderstorm,312
2013-9-20,63,53,42,50,44,39,93,68,43,30.03,29.98,29.93,10,10,4,23,12,30,0.02,5,Rain,309
2013-9-21,71,54,36,46,41,35,92,62,31,30.02,29.94,29.83,10,10,8,13,5,18,0.00,0,,132
2013-9-22,84,69,54,54,50,44,83,59,34,29.82,29.71,29.63,10,10,10,31,16,39,0.00,0,,160
2013-9-23,78,68,57,51,49,46,72,54,36,29.82,29.71,29.67,10,10,10,29,16,38,0.00,0,,163
2013-9-24,75,65,55,55,52,49,86,68,49,29.93,29.89,29.82,10,10,10,12,3,16,0.00,4,,136
2013-9-25,76,64,52,56,53,51,93,68,43,29.91,29.81,29.71,10,10,6,24,12,32,0.00,0,,154
2013-9-26,81,71,61,60,57,56,90,68,45,29.74,29.69,29.64,10,10,10,30,14,39,0.00,1,,170
2013-9-27,79,66,53,62,56,52,93,74,54,29.80,29.73,29.66,10,7,2,25,11,31,1.07,5,Rain-Thunderstorm,237
2013-9-28,62,54,46,53,46,38,100,70,39,29.94,29.78,29.67,10,8,2,23,13,31,0.78,6,Rain,296
2013-9-29,77,60,42,47,43,39,83,56,29,29.94,29.80,29.62,10,10,10,23,11,31,0.00,0,,177
2013-9-30,80,66,52,51,48,45,77,56,35,29.60,29.56,29.49,10,10,10,20,9,25,0.00,0,,184